PWSweather.com
Personal Weather Stations
Station Observations
AC5JC
Greenleaf Peninsula, Waco, Waco, TX 76710

Greenleaf Peninsula, WacoWaco, TX 76710

Lat: 31.565, Lon: -97.198

Elevation: 570

Station Type: Ambient WS-1400IP

http://ac5jc.dyndns.org

Latest ConditionsUpdated 4:50:00 PM CST Friday, Dec 14, 2018
Currently Today's Max Today's Min Today's Average
Temperature 48.0°F8.9°C 48.0°F8.9°C 42.1°F5.6°C 44.4°F6.9°C
Dew Point 41.8°F5.4°C 44.5°F6.9°C 38.9°F3.8°C 42.0°F5.6°C
Winds 5.4 mph NW8.7 kmh NW 11.4 mph -18.3 kmh - - 7.1 mph 11.4 kmh
Wind Gusts 15.0 mph24.1 kmh 27.5 mph44.3 kmh - -
Humidity 79% 99% 79% 91%
Pressure 29.46 in997.6 mb 29.46 in997.6 mb 29.20 in988.8 mb -
Precipitation - 0.14 in3.6 mm - -
Hour Temp Dew Point Humidity Winds Wind Gusts Pressure Precip Precip Rate Daily Precip Total
04:50 PM 48.0°F8.9°C 41.8°F5.4°C 79% 5.4 mph NW8.7 kmh NW 15.0 mph24.1 kmh 29.46 in997.6 mb 0.00 in0.0 mm 0.00 in0.0 mm 0.14 in3.6 mm
04:45 PM 48.0°F8.9°C 41.7°F5.4°C 79% 6.4 mph WNW10.3 kmh WNW 12.3 mph19.8 kmh 29.45 in997.3 mb 0.00 in0.0 mm 0.00 in0.0 mm 0.14 in3.6 mm
04:40 PM 47.9°F8.8°C 41.7°F5.4°C 79% 7.3 mph NNW11.7 kmh NNW 12.3 mph19.8 kmh 29.45 in997.3 mb 0.00 in0.0 mm 0.00 in0.0 mm 0.14 in3.6 mm
04:35 PM 47.8°F8.8°C 41.6°F5.3°C 79% 6.9 mph NW11.1 kmh NW 12.3 mph19.8 kmh 29.45 in997.3 mb 0.00 in0.0 mm 0.00 in0.0 mm 0.14 in3.6 mm
04:30 PM 47.7°F8.7°C 41.6°F5.3°C 79% 8.3 mph NW13.4 kmh NW 17.4 mph28.0 kmh 29.45 in997.3 mb 0.00 in0.0 mm 0.00 in0.0 mm 0.14 in3.6 mm
04:25 PM 47.6°F8.7°C 41.8°F5.4°C 80% 7.1 mph NW11.4 kmh NW 9.8 mph15.8 kmh 29.45 in997.3 mb 0.00 in0.0 mm 0.00 in0.0 mm 0.14 in3.6 mm
04:20 PM 47.5°F8.6°C 41.8°F5.4°C 81% 6.7 mph NNW10.8 kmh NNW 17.4 mph28.0 kmh 29.45 in997.3 mb 0.00 in0.0 mm 0.00 in0.0 mm 0.14 in3.6 mm
04:15 PM 47.4°F8.6°C 42.0°F5.6°C 82% 9.0 mph NW14.5 kmh NW 17.4 mph28.0 kmh 29.44 in997.0 mb 0.00 in0.0 mm 0.00 in0.0 mm 0.14 in3.6 mm
04:10 PM 47.3°F8.5°C 42.1°F5.6°C 82% 7.4 mph NW11.9 kmh NW 17.4 mph28.0 kmh 29.44 in997.0 mb 0.00 in0.0 mm 0.00 in0.0 mm 0.14 in3.6 mm
04:05 PM 47.3°F8.5°C 42.1°F5.6°C 82% 6.8 mph WNW10.9 kmh WNW 15.0 mph24.1 kmh 29.44 in997.0 mb 0.00 in0.0 mm 0.00 in0.0 mm 0.14 in3.6 mm
04:00 PM 47.1°F8.4°C 41.9°F5.5°C 82% 9.4 mph NNW15.1 kmh NNW 15.0 mph24.1 kmh 29.44 in997.0 mb 0.00 in0.0 mm 0.00 in0.0 mm 0.14 in3.6 mm
03:55 PM 47.1°F8.4°C 41.9°F5.5°C 82% 6.2 mph WNW10.0 kmh WNW 9.8 mph15.8 kmh 29.44 in997.0 mb 0.00 in0.0 mm 0.00 in0.0 mm 0.14 in3.6 mm
03:50 PM 47.0°F8.3°C 41.8°F5.4°C 82% 6.8 mph W10.9 kmh W 17.4 mph28.0 kmh 29.44 in997.0 mb 0.00 in0.0 mm 0.00 in0.0 mm 0.14 in3.6 mm
03:45 PM 46.9°F8.3°C 41.7°F5.4°C 82% 6.0 mph NW9.7 kmh NW 12.3 mph19.8 kmh 29.43 in996.6 mb 0.00 in0.0 mm 0.00 in0.0 mm 0.14 in3.6 mm
03:40 PM 46.8°F8.2°C 41.7°F5.4°C 82% 7.5 mph NW12.1 kmh NW 19.9 mph32.0 kmh 29.43 in996.6 mb 0.00 in0.0 mm 0.00 in0.0 mm 0.14 in3.6 mm
03:35 PM 46.7°F8.2°C 41.8°F5.4°C 83% 8.0 mph NW12.9 kmh NW 15.0 mph24.1 kmh 29.43 in996.6 mb 0.00 in0.0 mm 0.00 in0.0 mm 0.14 in3.6 mm
03:30 PM 46.6°F8.1°C 41.7°F5.4°C 83% 6.9 mph NNW11.1 kmh NNW 15.0 mph24.1 kmh 29.43 in996.6 mb 0.00 in0.0 mm 0.00 in0.0 mm 0.14 in3.6 mm
03:25 PM 46.4°F8.0°C 41.8°F5.4°C 84% 10.5 mph NNW16.9 kmh NNW 19.9 mph32.0 kmh 29.42 in996.3 mb 0.00 in0.0 mm 0.00 in0.0 mm 0.14 in3.6 mm
03:20 PM 46.4°F8.0°C 41.9°F5.5°C 84% 7.3 mph W11.7 kmh W 15.0 mph24.1 kmh 29.42 in996.3 mb 0.00 in0.0 mm 0.00 in0.0 mm 0.14 in3.6 mm
03:15 PM 46.4°F8.0°C 41.8°F5.4°C 84% 6.9 mph NW11.1 kmh NW 15.0 mph24.1 kmh 29.42 in996.3 mb 0.00 in0.0 mm 0.00 in0.0 mm 0.14 in3.6 mm
03:10 PM 46.4°F8.0°C 41.9°F5.5°C 84% 8.0 mph NW12.9 kmh NW 22.4 mph36.0 kmh 29.42 in996.3 mb 0.00 in0.0 mm 0.00 in0.0 mm 0.14 in3.6 mm
03:05 PM 46.4°F8.0°C 41.8°F5.4°C 84% 6.6 mph WNW10.6 kmh WNW 15.0 mph24.1 kmh 29.42 in996.3 mb 0.00 in0.0 mm 0.00 in0.0 mm 0.14 in3.6 mm
03:00 PM 46.2°F7.9°C 41.6°F5.3°C 84% 11.2 mph NW18.0 kmh NW 22.4 mph36.0 kmh 29.42 in996.3 mb 0.00 in0.0 mm 0.00 in0.0 mm 0.14 in3.6 mm
02:55 PM 46.2°F7.9°C 41.3°F5.2°C 83% 5.9 mph NW9.5 kmh NW 15.0 mph24.1 kmh 29.41 in995.9 mb 0.00 in0.0 mm 0.00 in0.0 mm 0.14 in3.6 mm
02:50 PM 46.2°F7.9°C 41.3°F5.2°C 83% 3.8 mph WNW6.1 kmh WNW 7.4 mph11.9 kmh 29.41 in995.9 mb 0.00 in0.0 mm 0.00 in0.0 mm 0.14 in3.6 mm
02:45 PM 46.0°F7.8°C 41.1°F5.1°C 83% 7.8 mph NW12.6 kmh NW 15.0 mph24.1 kmh 29.41 in995.9 mb 0.00 in0.0 mm 0.00 in0.0 mm 0.14 in3.6 mm
02:40 PM 45.9°F7.7°C 41.1°F5.1°C 83% 6.5 mph NNW10.5 kmh NNW 12.3 mph19.8 kmh 29.40 in995.6 mb 0.00 in0.0 mm 0.00 in0.0 mm 0.14 in3.6 mm
02:35 PM 45.8°F7.7°C 40.7°F4.8°C 82% 8.9 mph NW14.3 kmh NW 19.9 mph32.0 kmh 29.41 in995.9 mb 0.00 in0.0 mm 0.00 in0.0 mm 0.14 in3.6 mm
02:30 PM 45.7°F7.6°C 40.6°F4.8°C 82% 6.7 mph NW10.8 kmh NW 17.4 mph28.0 kmh 29.41 in995.9 mb 0.00 in0.0 mm 0.00 in0.0 mm 0.14 in3.6 mm
02:25 PM 45.5°F7.5°C 40.5°F4.7°C 82% 9.8 mph NW15.8 kmh NW 19.9 mph32.0 kmh 29.40 in995.6 mb 0.00 in0.0 mm 0.00 in0.0 mm 0.14 in3.6 mm
02:20 PM 45.4°F7.4°C 40.7°F4.8°C 83% 9.5 mph WNW15.3 kmh WNW 19.9 mph32.0 kmh 29.41 in995.9 mb 0.00 in0.0 mm 0.00 in0.0 mm 0.14 in3.6 mm
02:15 PM 45.3°F7.4°C 40.8°F4.9°C 84% 10.1 mph WNW16.3 kmh WNW 19.9 mph32.0 kmh 29.40 in995.6 mb 0.00 in0.0 mm 0.00 in0.0 mm 0.14 in3.6 mm
02:10 PM 45.1°F7.3°C 40.8°F4.9°C 85% 6.8 mph NW10.9 kmh NW 12.3 mph19.8 kmh 29.40 in995.6 mb 0.00 in0.0 mm 0.00 in0.0 mm 0.14 in3.6 mm
02:05 PM 45.1°F7.3°C 40.9°F4.9°C 85% 7.4 mph NW11.9 kmh NW 15.0 mph24.1 kmh 29.39 in995.3 mb 0.00 in0.0 mm 0.00 in0.0 mm 0.14 in3.6 mm
02:00 PM 45.1°F7.3°C 40.9°F4.9°C 85% 5.4 mph W8.7 kmh W 9.8 mph15.8 kmh 29.40 in995.6 mb 0.00 in0.0 mm 0.00 in0.0 mm 0.14 in3.6 mm
01:55 PM 45.0°F7.2°C 40.8°F4.9°C 85% 3.9 mph W6.3 kmh W 12.3 mph19.8 kmh 29.39 in995.3 mb 0.00 in0.0 mm 0.00 in0.0 mm 0.14 in3.6 mm
01:50 PM 45.0°F7.2°C 40.7°F4.8°C 85% 3.7 mph WNW6.0 kmh WNW 9.8 mph15.8 kmh 29.39 in995.3 mb 0.00 in0.0 mm 0.00 in0.0 mm 0.14 in3.6 mm
01:45 PM 44.8°F7.1°C 40.6°F4.8°C 85% 6.6 mph NW10.6 kmh NW 12.3 mph19.8 kmh 29.39 in995.3 mb 0.00 in0.0 mm 0.00 in0.0 mm 0.14 in3.6 mm
01:40 PM 44.8°F7.1°C 40.6°F4.8°C 85% 8.6 mph WNW13.8 kmh WNW 17.4 mph28.0 kmh 29.40 in995.6 mb 0.00 in0.0 mm 0.00 in0.0 mm 0.14 in3.6 mm
01:35 PM 44.6°F7.0°C 40.4°F4.7°C 85% 5.7 mph NW9.2 kmh NW 9.8 mph15.8 kmh 29.40 in995.6 mb 0.00 in0.0 mm 0.00 in0.0 mm 0.14 in3.6 mm
01:30 PM 44.6°F7.0°C 40.7°F4.8°C 86% 6.0 mph NW9.7 kmh NW 15.0 mph24.1 kmh 29.40 in995.6 mb 0.00 in0.0 mm 0.00 in0.0 mm 0.14 in3.6 mm
01:25 PM 44.5°F6.9°C 40.6°F4.8°C 86% 10.5 mph NW16.9 kmh NW 27.5 mph44.3 kmh 29.40 in995.6 mb 0.00 in0.0 mm 0.00 in0.0 mm 0.14 in3.6 mm
01:20 PM 44.4°F6.9°C 40.5°F4.7°C 86% 8.4 mph WNW13.5 kmh WNW 12.3 mph19.8 kmh 29.40 in995.6 mb 0.00 in0.0 mm 0.00 in0.0 mm 0.14 in3.6 mm
01:15 PM 44.4°F6.9°C 40.5°F4.7°C 86% 6.5 mph NW10.5 kmh NW 17.4 mph28.0 kmh 29.40 in995.6 mb 0.00 in0.0 mm 0.00 in0.0 mm 0.14 in3.6 mm
01:10 PM 44.4°F6.9°C 40.5°F4.7°C 86% 8.0 mph NW12.9 kmh NW 17.4 mph28.0 kmh 29.40 in995.6 mb 0.00 in0.0 mm 0.00 in0.0 mm 0.14 in3.6 mm
01:05 PM 44.4°F6.9°C 40.7°F4.8°C 87% 6.1 mph WNW9.8 kmh WNW 17.4 mph28.0 kmh 29.40 in995.6 mb 0.00 in0.0 mm 0.00 in0.0 mm 0.14 in3.6 mm
01:00 PM 44.6°F7.0°C 40.6°F4.8°C 86% 6.8 mph W10.9 kmh W 12.3 mph19.8 kmh 29.40 in995.6 mb 0.00 in0.0 mm 0.00 in0.0 mm 0.14 in3.6 mm
12:55 PM 44.6°F7.0°C 40.6°F4.8°C 86% 6.9 mph W11.1 kmh W 17.4 mph28.0 kmh 29.39 in995.3 mb 0.00 in0.0 mm 0.00 in0.0 mm 0.14 in3.6 mm
12:50 PM 44.8°F7.1°C 40.6°F4.8°C 85% 7.6 mph NW12.2 kmh NW 12.3 mph19.8 kmh 29.40 in995.6 mb 0.00 in0.0 mm 0.00 in0.0 mm 0.14 in3.6 mm
12:45 PM 44.8°F7.1°C 40.6°F4.8°C 85% 9.8 mph WNW15.8 kmh WNW 19.9 mph32.0 kmh 29.40 in995.6 mb 0.00 in0.0 mm 0.00 in0.0 mm 0.14 in3.6 mm
12:40 PM 45.0°F7.2°C 40.7°F4.8°C 85% 10.4 mph NW16.7 kmh NW 19.9 mph32.0 kmh 29.39 in995.3 mb 0.00 in0.0 mm 0.00 in0.0 mm 0.14 in3.6 mm
12:35 PM 45.0°F7.2°C 40.5°F4.7°C 84% 4.5 mph W7.2 kmh W 15.0 mph24.1 kmh 29.40 in995.6 mb 0.00 in0.0 mm 0.00 in0.0 mm 0.14 in3.6 mm
12:30 PM 45.0°F7.2°C 40.5°F4.7°C 84% 6.6 mph WNW10.6 kmh WNW 15.0 mph24.1 kmh 29.40 in995.6 mb 0.00 in0.0 mm 0.00 in0.0 mm 0.14 in3.6 mm
12:25 PM 44.9°F7.2°C 40.1°F4.5°C 83% 6.6 mph NW10.6 kmh NW 12.3 mph19.8 kmh 29.40 in995.6 mb 0.00 in0.0 mm 0.00 in0.0 mm 0.14 in3.6 mm
12:20 PM 44.8°F7.1°C 40.0°F4.4°C 83% 7.5 mph NW12.1 kmh NW 17.4 mph28.0 kmh 29.40 in995.6 mb 0.00 in0.0 mm 0.00 in0.0 mm 0.14 in3.6 mm
12:15 PM 44.6°F7.0°C 39.9°F4.4°C 83% 9.4 mph NW15.1 kmh NW 17.4 mph28.0 kmh 29.40 in995.6 mb 0.00 in0.0 mm 0.00 in0.0 mm 0.14 in3.6 mm
12:10 PM 44.6°F7.0°C 40.1°F4.5°C 84% 10.9 mph NNW17.5 kmh NNW 17.4 mph28.0 kmh 29.40 in995.6 mb 0.00 in0.0 mm 0.00 in0.0 mm 0.14 in3.6 mm
12:05 PM 44.4°F6.9°C 39.9°F4.4°C 84% 6.9 mph W11.1 kmh W 15.0 mph24.1 kmh 29.40 in995.6 mb 0.00 in0.0 mm 0.00 in0.0 mm 0.14 in3.6 mm
12:00 PM 44.2°F6.8°C 39.7°F4.3°C 84% 4.5 mph WNW7.2 kmh WNW 12.3 mph19.8 kmh 29.40 in995.6 mb 0.00 in0.0 mm 0.00 in0.0 mm 0.14 in3.6 mm
11:55 AM 44.2°F6.8°C 39.9°F4.4°C 85% 7.3 mph WNW11.7 kmh WNW 17.4 mph28.0 kmh 29.40 in995.6 mb 0.00 in0.0 mm 0.00 in0.0 mm 0.14 in3.6 mm
11:50 AM 44.1°F6.7°C 39.9°F4.4°C 85% 6.7 mph WNW10.8 kmh WNW 17.4 mph28.0 kmh 29.41 in995.9 mb 0.00 in0.0 mm 0.00 in0.0 mm 0.14 in3.6 mm
11:45 AM 44.1°F6.7°C 40.1°F4.5°C 86% 9.4 mph NW15.1 kmh NW 17.4 mph28.0 kmh 29.41 in995.9 mb 0.00 in0.0 mm 0.00 in0.0 mm 0.14 in3.6 mm
11:40 AM 43.9°F6.6°C 40.0°F4.4°C 86% 8.3 mph NW13.4 kmh NW 17.4 mph28.0 kmh 29.41 in995.9 mb 0.00 in0.0 mm 0.00 in0.0 mm 0.14 in3.6 mm
11:35 AM 43.9°F6.6°C 39.9°F4.4°C 86% 7.8 mph WNW12.6 kmh WNW 17.4 mph28.0 kmh 29.41 in995.9 mb 0.00 in0.0 mm 0.00 in0.0 mm 0.14 in3.6 mm
11:30 AM 43.9°F6.6°C 39.7°F4.3°C 85% 9.1 mph NNW14.6 kmh NNW 17.4 mph28.0 kmh 29.41 in995.9 mb 0.00 in0.0 mm 0.00 in0.0 mm 0.14 in3.6 mm
11:25 AM 44.1°F6.7°C 39.9°F4.4°C 85% 7.2 mph NW11.6 kmh NW 17.4 mph28.0 kmh 29.41 in995.9 mb 0.00 in0.0 mm 0.00 in0.0 mm 0.14 in3.6 mm
11:20 AM 44.1°F6.7°C 39.6°F4.2°C 84% 6.7 mph NW10.8 kmh NW 19.9 mph32.0 kmh 29.41 in995.9 mb 0.00 in0.0 mm 0.00 in0.0 mm 0.14 in3.6 mm
11:15 AM 44.1°F6.7°C 39.6°F4.2°C 84% 10.2 mph NW16.4 kmh NW 15.0 mph24.1 kmh 29.42 in996.3 mb 0.00 in0.0 mm 0.00 in0.0 mm 0.14 in3.6 mm
11:10 AM 44.0°F6.7°C 39.4°F4.1°C 84% 9.2 mph WNW14.8 kmh WNW 17.4 mph28.0 kmh 29.42 in996.3 mb 0.00 in0.0 mm 0.00 in0.0 mm 0.14 in3.6 mm
11:05 AM 43.9°F6.6°C 39.4°F4.1°C 84% 6.7 mph NNW10.8 kmh NNW 17.4 mph28.0 kmh 29.42 in996.3 mb 0.00 in0.0 mm 0.00 in0.0 mm 0.14 in3.6 mm
11:00 AM 43.9°F6.6°C 39.4°F4.1°C 84% 9.5 mph NW15.3 kmh NW 15.0 mph24.1 kmh 29.43 in996.6 mb 0.00 in0.0 mm 0.00 in0.0 mm 0.14 in3.6 mm
10:55 AM 43.7°F6.5°C 39.2°F4.0°C 84% 8.1 mph WNW13.0 kmh WNW 15.0 mph24.1 kmh 29.42 in996.3 mb 0.00 in0.0 mm 0.00 in0.0 mm 0.14 in3.6 mm
10:50 AM 43.7°F6.5°C 39.2°F4.0°C 84% 8.6 mph NNW13.8 kmh NNW 15.0 mph24.1 kmh 29.42 in996.3 mb 0.00 in0.0 mm 0.00 in0.0 mm 0.14 in3.6 mm
10:45 AM 43.5°F6.4°C 39.0°F3.9°C 84% 6.2 mph NW10.0 kmh NW 9.8 mph15.8 kmh 29.42 in996.3 mb 0.00 in0.0 mm 0.00 in0.0 mm 0.14 in3.6 mm
10:40 AM 43.5°F6.4°C 39.0°F3.9°C 84% 8.0 mph NW12.9 kmh NW 17.4 mph28.0 kmh 29.42 in996.3 mb 0.00 in0.0 mm 0.00 in0.0 mm 0.14 in3.6 mm
10:35 AM 43.3°F6.3°C 38.9°F3.8°C 84% 9.4 mph NW15.1 kmh NW 15.0 mph24.1 kmh 29.42 in996.3 mb 0.00 in0.0 mm 0.00 in0.0 mm 0.14 in3.6 mm
10:30 AM 43.3°F6.3°C 38.9°F3.8°C 84% 9.0 mph NW14.5 kmh NW 19.9 mph32.0 kmh 29.42 in996.3 mb 0.00 in0.0 mm 0.00 in0.0 mm 0.14 in3.6 mm
10:25 AM 43.2°F6.2°C 39.0°F3.9°C 85% 7.3 mph WNW11.7 kmh WNW 12.3 mph19.8 kmh 29.41 in995.9 mb 0.00 in0.0 mm 0.00 in0.0 mm 0.14 in3.6 mm
10:20 AM 43.2°F6.2°C 39.0°F3.9°C 85% 6.7 mph NW10.8 kmh NW 15.0 mph24.1 kmh 29.41 in995.9 mb 0.00 in0.0 mm 0.00 in0.0 mm 0.14 in3.6 mm
10:15 AM 43.0°F6.1°C 39.0°F3.9°C 85% 8.3 mph WNW13.4 kmh WNW 19.9 mph32.0 kmh 29.41 in995.9 mb 0.00 in0.0 mm 0.00 in0.0 mm 0.14 in3.6 mm
10:10 AM 43.0°F6.1°C 39.1°F3.9°C 86% 11.4 mph NW18.3 kmh NW 22.4 mph36.0 kmh 29.41 in995.9 mb 0.00 in0.0 mm 0.00 in0.0 mm 0.14 in3.6 mm
10:05 AM 42.8°F6.0°C 39.1°F3.9°C 87% 8.1 mph NW13.0 kmh NW 15.0 mph24.1 kmh 29.41 in995.9 mb 0.00 in0.0 mm 0.00 in0.0 mm 0.14 in3.6 mm
10:00 AM 42.7°F5.9°C 39.1°F3.9°C 87% 6.8 mph NW10.9 kmh NW 19.9 mph32.0 kmh 29.40 in995.6 mb 0.00 in0.0 mm 0.00 in0.0 mm 0.14 in3.6 mm
09:55 AM 42.6°F5.9°C 39.1°F3.9°C 87% 5.2 mph WNW8.4 kmh WNW 17.4 mph28.0 kmh 29.40 in995.6 mb 0.00 in0.0 mm 0.00 in0.0 mm 0.14 in3.6 mm
09:50 AM 42.6°F5.9°C 39.2°F4.0°C 88% 8.2 mph NW13.2 kmh NW 15.0 mph24.1 kmh 29.41 in995.9 mb 0.00 in0.0 mm 0.00 in0.0 mm 0.14 in3.6 mm
09:45 AM 42.6°F5.9°C 39.6°F4.2°C 89% 8.0 mph NW12.9 kmh NW 15.0 mph24.1 kmh 29.40 in995.6 mb 0.00 in0.0 mm 0.00 in0.0 mm 0.14 in3.6 mm
09:40 AM 42.6°F5.9°C 39.5°F4.2°C 89% 8.3 mph WNW13.4 kmh WNW 17.4 mph28.0 kmh 29.40 in995.6 mb 0.00 in0.0 mm 0.00 in0.0 mm 0.14 in3.6 mm
09:35 AM 42.6°F5.9°C 39.8°F4.3°C 90% 7.0 mph NW11.3 kmh NW 15.0 mph24.1 kmh 29.40 in995.6 mb 0.00 in0.0 mm 0.00 in0.0 mm 0.14 in3.6 mm
09:30 AM 42.6°F5.9°C 39.9°F4.4°C 90% 6.7 mph NW10.8 kmh NW 12.3 mph19.8 kmh 29.40 in995.6 mb 0.00 in0.0 mm 0.00 in0.0 mm 0.14 in3.6 mm
09:25 AM 42.6°F5.9°C 40.0°F4.4°C 90% 10.3 mph N16.6 kmh N 19.9 mph32.0 kmh 29.39 in995.3 mb 0.00 in0.0 mm 0.00 in0.0 mm 0.14 in3.6 mm
09:20 AM 42.5°F5.8°C 40.0°F4.4°C 91% 7.7 mph NW12.4 kmh NW 17.4 mph28.0 kmh 29.39 in995.3 mb 0.00 in0.0 mm 0.00 in0.0 mm 0.14 in3.6 mm
09:15 AM 42.4°F5.8°C 40.2°F4.6°C 92% 7.6 mph NW12.2 kmh NW 19.9 mph32.0 kmh 29.39 in995.3 mb 0.00 in0.0 mm 0.00 in0.0 mm 0.14 in3.6 mm
09:10 AM 42.4°F5.8°C 40.2°F4.6°C 92% 7.0 mph NW11.3 kmh NW 12.3 mph19.8 kmh 29.39 in995.3 mb 0.00 in0.0 mm 0.00 in0.0 mm 0.14 in3.6 mm
09:05 AM 42.4°F5.8°C 40.2°F4.6°C 92% 8.1 mph WNW13.0 kmh WNW 17.4 mph28.0 kmh 29.38 in994.9 mb 0.00 in0.0 mm 0.00 in0.0 mm 0.14 in3.6 mm
09:00 AM 42.4°F5.8°C 40.5°F4.7°C 93% 7.3 mph NW11.7 kmh NW 17.4 mph28.0 kmh 29.38 in994.9 mb 0.00 in0.0 mm 0.00 in0.0 mm 0.14 in3.6 mm
08:55 AM 42.4°F5.8°C 40.5°F4.7°C 93% 10.9 mph WNW17.5 kmh WNW 17.4 mph28.0 kmh 29.39 in995.3 mb 0.00 in0.0 mm 0.00 in0.0 mm 0.14 in3.6 mm
08:50 AM 42.4°F5.8°C 40.7°F4.8°C 94% 9.0 mph WNW14.5 kmh WNW 19.9 mph32.0 kmh 29.38 in994.9 mb 0.00 in0.0 mm 0.00 in0.0 mm 0.14 in3.6 mm
08:45 AM 42.4°F5.8°C 40.8°F4.9°C 94% 6.5 mph NW10.5 kmh NW 15.0 mph24.1 kmh 29.38 in994.9 mb 0.00 in0.0 mm 0.00 in0.0 mm 0.14 in3.6 mm
08:40 AM 42.4°F5.8°C 40.9°F4.9°C 94% 8.8 mph NW14.2 kmh NW 19.9 mph32.0 kmh 29.38 in994.9 mb 0.00 in0.0 mm 0.00 in0.0 mm 0.14 in3.6 mm
08:35 AM 42.4°F5.8°C 41.1°F5.1°C 95% 7.8 mph NW12.6 kmh NW 17.4 mph28.0 kmh 29.38 in994.9 mb 0.00 in0.0 mm 0.00 in0.0 mm 0.14 in3.6 mm
08:30 AM 42.4°F5.8°C 41.2°F5.1°C 96% 9.4 mph NW15.1 kmh NW 15.0 mph24.1 kmh 29.38 in994.9 mb 0.00 in0.0 mm 0.00 in0.0 mm 0.14 in3.6 mm
08:25 AM 42.3°F5.7°C 41.2°F5.1°C 96% 7.6 mph NW12.2 kmh NW 15.0 mph24.1 kmh 29.37 in994.6 mb 0.00 in0.0 mm 0.00 in0.0 mm 0.14 in3.6 mm
08:20 AM 42.3°F5.7°C 41.5°F5.3°C 97% 9.2 mph NW14.8 kmh NW 15.0 mph24.1 kmh 29.37 in994.6 mb 0.00 in0.0 mm 0.00 in0.0 mm 0.14 in3.6 mm
08:15 AM 42.1°F5.6°C 41.5°F5.3°C 97% 5.9 mph WNW9.5 kmh WNW 9.8 mph15.8 kmh 29.37 in994.6 mb 0.00 in0.0 mm 0.00 in0.0 mm 0.14 in3.6 mm
08:10 AM 42.1°F5.6°C 41.6°F5.3°C 98% 7.7 mph W12.4 kmh W 12.3 mph19.8 kmh 29.37 in994.6 mb 0.00 in0.0 mm 0.00 in0.0 mm 0.14 in3.6 mm
08:05 AM 42.1°F5.6°C 41.8°F5.4°C 99% 6.5 mph NW10.5 kmh NW 17.4 mph28.0 kmh 29.37 in994.6 mb 0.00 in0.0 mm 0.00 in0.0 mm 0.14 in3.6 mm
08:00 AM 42.1°F5.6°C 41.8°F5.4°C 99% 9.4 mph WNW15.1 kmh WNW 22.4 mph36.0 kmh 29.36 in994.2 mb 0.00 in0.0 mm 0.00 in0.0 mm 0.14 in3.6 mm
07:55 AM 42.1°F5.6°C 41.8°F5.4°C 99% 7.4 mph WNW11.9 kmh WNW 15.0 mph24.1 kmh 29.37 in994.6 mb 0.00 in0.0 mm 0.00 in0.0 mm 0.14 in3.6 mm
07:50 AM 42.1°F5.6°C 41.8°F5.4°C 99% 7.2 mph WNW11.6 kmh WNW 22.4 mph36.0 kmh 29.37 in994.6 mb 0.00 in0.0 mm 0.00 in0.0 mm 0.14 in3.6 mm
07:45 AM 42.2°F5.7°C 41.9°F5.5°C 99% 10.0 mph NW16.1 kmh NW 19.9 mph32.0 kmh 29.36 in994.2 mb 0.00 in0.0 mm 0.00 in0.0 mm 0.14 in3.6 mm
07:40 AM 42.3°F5.7°C 42.0°F5.6°C 99% 8.0 mph NW12.9 kmh NW 19.9 mph32.0 kmh 29.36 in994.2 mb 0.00 in0.0 mm 0.00 in0.0 mm 0.14 in3.6 mm
07:35 AM 42.3°F5.7°C 42.0°F5.6°C 99% 6.2 mph W10.0 kmh W 15.0 mph24.1 kmh 29.36 in994.2 mb 0.00 in0.0 mm 0.00 in0.0 mm 0.14 in3.6 mm
07:30 AM 42.4°F5.8°C 42.1°F5.6°C 99% 9.3 mph NW15.0 kmh NW 19.9 mph32.0 kmh 29.36 in994.2 mb 0.00 in0.0 mm 0.00 in0.0 mm 0.14 in3.6 mm
07:25 AM 42.4°F5.8°C 42.1°F5.6°C 99% 8.6 mph NW13.8 kmh NW 17.4 mph28.0 kmh 29.36 in994.2 mb 0.01 in0.3 mm 0.00 in0.0 mm 0.14 in3.6 mm
07:20 AM 42.6°F5.9°C 42.3°F5.7°C 99% 6.7 mph WNW10.8 kmh WNW 12.3 mph19.8 kmh 29.36 in994.2 mb 0.01 in0.3 mm 0.00 in0.0 mm 0.14 in3.6 mm
07:15 AM 42.6°F5.9°C 42.3°F5.7°C 99% 8.1 mph NNW13.0 kmh NNW 15.0 mph24.1 kmh 29.36 in994.2 mb 0.01 in0.3 mm 0.00 in0.0 mm 0.14 in3.6 mm
07:10 AM 42.6°F5.9°C 42.3°F5.7°C 99% 6.8 mph WNW10.9 kmh WNW 17.4 mph28.0 kmh 29.35 in993.9 mb 0.01 in0.3 mm 0.00 in0.0 mm 0.14 in3.6 mm
07:05 AM 42.6°F5.9°C 42.2°F5.7°C 98% 7.9 mph W12.7 kmh W 19.9 mph32.0 kmh 29.35 in993.9 mb 0.01 in0.3 mm 0.00 in0.0 mm 0.14 in3.6 mm
07:00 AM 42.8°F6.0°C 42.3°F5.7°C 98% 6.2 mph W10.0 kmh W 15.0 mph24.1 kmh 29.35 in993.9 mb 0.01 in0.3 mm 0.00 in0.0 mm 0.14 in3.6 mm
06:55 AM 42.8°F6.0°C 42.3°F5.7°C 98% 9.0 mph WNW14.5 kmh WNW 15.0 mph24.1 kmh 29.35 in993.9 mb 0.01 in0.3 mm 0.00 in0.0 mm 0.14 in3.6 mm
06:50 AM 42.8°F6.0°C 42.3°F5.7°C 98% 6.7 mph W10.8 kmh W 12.3 mph19.8 kmh 29.34 in993.6 mb 0.01 in0.3 mm 0.00 in0.0 mm 0.14 in3.6 mm
06:45 AM 42.8°F6.0°C 42.3°F5.7°C 98% 8.0 mph WNW12.9 kmh WNW 15.0 mph24.1 kmh 29.34 in993.6 mb 0.01 in0.3 mm 0.00 in0.0 mm 0.14 in3.6 mm
06:40 AM 42.8°F6.0°C 42.3°F5.7°C 98% 7.1 mph WNW11.4 kmh WNW 15.0 mph24.1 kmh 29.34 in993.6 mb 0.01 in0.3 mm 0.00 in0.0 mm 0.14 in3.6 mm
06:35 AM 42.8°F6.0°C 42.3°F5.7°C 98% 8.6 mph WNW13.8 kmh WNW 17.4 mph28.0 kmh 29.33 in993.2 mb 0.01 in0.3 mm 0.00 in0.0 mm 0.14 in3.6 mm
06:30 AM 42.8°F6.0°C 42.3°F5.7°C 98% 7.9 mph NW12.7 kmh NW 22.4 mph36.0 kmh 29.33 in993.2 mb 0.01 in0.3 mm 0.12 in3.0 mm 0.14 in3.6 mm
06:25 AM 43.0°F6.1°C 42.5°F5.8°C 98% 5.9 mph NW9.5 kmh NW 15.0 mph24.1 kmh 29.33 in993.2 mb 0.00 in0.0 mm 0.00 in0.0 mm 0.13 in3.3 mm
06:20 AM 43.2°F6.2°C 42.6°F5.9°C 98% 7.1 mph NW11.4 kmh NW 17.4 mph28.0 kmh 29.33 in993.2 mb 0.00 in0.0 mm 0.00 in0.0 mm 0.13 in3.3 mm
06:15 AM 43.2°F6.2°C 42.7°F5.9°C 98% 9.1 mph NW14.6 kmh NW 19.9 mph32.0 kmh 29.32 in992.9 mb 0.00 in0.0 mm 0.00 in0.0 mm 0.13 in3.3 mm
06:10 AM 43.3°F6.3°C 42.8°F6.0°C 98% 8.1 mph NW13.0 kmh NW 19.9 mph32.0 kmh 29.32 in992.9 mb 0.00 in0.0 mm 0.00 in0.0 mm 0.13 in3.3 mm
06:05 AM 43.3°F6.3°C 42.8°F6.0°C 98% 9.0 mph NW14.5 kmh NW 19.9 mph32.0 kmh 29.32 in992.9 mb 0.00 in0.0 mm 0.00 in0.0 mm 0.13 in3.3 mm
06:00 AM 43.5°F6.4°C 43.0°F6.1°C 98% 7.8 mph NW12.6 kmh NW 22.4 mph36.0 kmh 29.32 in992.9 mb 0.00 in0.0 mm 0.00 in0.0 mm 0.13 in3.3 mm
05:55 AM 43.5°F6.4°C 43.0°F6.1°C 98% 6.4 mph NW10.3 kmh NW 12.3 mph19.8 kmh 29.31 in992.6 mb 0.00 in0.0 mm 0.00 in0.0 mm 0.13 in3.3 mm
05:50 AM 43.5°F6.4°C 43.0°F6.1°C 98% 8.0 mph NW12.9 kmh NW 15.0 mph24.1 kmh 29.31 in992.6 mb 0.00 in0.0 mm 0.00 in0.0 mm 0.13 in3.3 mm
05:45 AM 43.5°F6.4°C 43.0°F6.1°C 98% 6.2 mph NW10.0 kmh NW 17.4 mph28.0 kmh 29.30 in992.2 mb 0.00 in0.0 mm 0.00 in0.0 mm 0.13 in3.3 mm
05:40 AM 43.7°F6.5°C 43.1°F6.2°C 98% 6.6 mph WNW10.6 kmh WNW 15.0 mph24.1 kmh 29.30 in992.2 mb 0.01 in0.3 mm 0.00 in0.0 mm 0.13 in3.3 mm
05:35 AM 43.7°F6.5°C 43.2°F6.2°C 98% 4.4 mph NW7.1 kmh NW 9.8 mph15.8 kmh 29.30 in992.2 mb 0.01 in0.3 mm 0.00 in0.0 mm 0.13 in3.3 mm
05:30 AM 43.7°F6.5°C 43.2°F6.2°C 98% 6.1 mph NW9.8 kmh NW 15.0 mph24.1 kmh 29.30 in992.2 mb 0.01 in0.3 mm 0.00 in0.0 mm 0.13 in3.3 mm
05:25 AM 43.9°F6.6°C 43.4°F6.3°C 98% 7.4 mph NW11.9 kmh NW 17.4 mph28.0 kmh 29.29 in991.9 mb 0.01 in0.3 mm 0.00 in0.0 mm 0.13 in3.3 mm
05:20 AM 43.9°F6.6°C 43.4°F6.3°C 98% 7.2 mph WNW11.6 kmh WNW 19.9 mph32.0 kmh 29.29 in991.9 mb 0.01 in0.3 mm 0.00 in0.0 mm 0.13 in3.3 mm
05:15 AM 43.9°F6.6°C 43.4°F6.3°C 98% 5.7 mph W9.2 kmh W 7.4 mph11.9 kmh 29.28 in991.5 mb 0.01 in0.3 mm 0.00 in0.0 mm 0.13 in3.3 mm
05:10 AM 43.9°F6.6°C 43.4°F6.3°C 98% 4.7 mph NW7.6 kmh NW 15.0 mph24.1 kmh 29.29 in991.9 mb 0.01 in0.3 mm 0.00 in0.0 mm 0.13 in3.3 mm
05:05 AM 43.9°F6.6°C 43.4°F6.3°C 98% 6.9 mph WNW11.1 kmh WNW 15.0 mph24.1 kmh 29.28 in991.5 mb 0.01 in0.3 mm 0.00 in0.0 mm 0.13 in3.3 mm
05:00 AM 43.9°F6.6°C 43.4°F6.3°C 98% 8.5 mph NW13.7 kmh NW 19.9 mph32.0 kmh 29.28 in991.5 mb 0.02 in0.5 mm 0.00 in0.0 mm 0.13 in3.3 mm
04:55 AM 43.9°F6.6°C 43.4°F6.3°C 98% 8.3 mph NW13.4 kmh NW 22.4 mph36.0 kmh 29.28 in991.5 mb 0.02 in0.5 mm 0.00 in0.0 mm 0.13 in3.3 mm
04:50 AM 44.0°F6.7°C 43.5°F6.4°C 98% 6.4 mph NW10.3 kmh NW 15.0 mph24.1 kmh 29.28 in991.5 mb 0.02 in0.5 mm 0.00 in0.0 mm 0.13 in3.3 mm
04:45 AM 44.1°F6.7°C 43.6°F6.4°C 98% 5.6 mph NW9.0 kmh NW 9.8 mph15.8 kmh 29.28 in991.5 mb 0.02 in0.5 mm 0.00 in0.0 mm 0.13 in3.3 mm
04:40 AM 44.1°F6.7°C 43.6°F6.4°C 98% 5.0 mph NNW8.0 kmh NNW 12.3 mph19.8 kmh 29.28 in991.5 mb 0.03 in0.8 mm 0.00 in0.0 mm 0.12 in3.0 mm
04:35 AM 44.2°F6.8°C 43.6°F6.4°C 98% 5.3 mph NW8.5 kmh NW 15.0 mph24.1 kmh 29.27 in991.2 mb 0.03 in0.8 mm 0.00 in0.0 mm 0.12 in3.0 mm
04:30 AM 44.2°F6.8°C 43.7°F6.5°C 98% 3.6 mph WNW5.8 kmh WNW 7.4 mph11.9 kmh 29.27 in991.2 mb 0.03 in0.8 mm 0.00 in0.0 mm 0.12 in3.0 mm
04:25 AM 44.3°F6.8°C 43.8°F6.6°C 98% 7.5 mph WNW12.1 kmh WNW 15.0 mph24.1 kmh 29.28 in991.5 mb 0.03 in0.8 mm 0.00 in0.0 mm 0.12 in3.0 mm
04:20 AM 44.4°F6.9°C 43.9°F6.6°C 98% 6.1 mph NW9.8 kmh NW 12.3 mph19.8 kmh 29.27 in991.2 mb 0.03 in0.8 mm 0.00 in0.0 mm 0.12 in3.0 mm
04:15 AM 44.5°F6.9°C 44.0°F6.7°C 98% 5.2 mph WNW8.4 kmh WNW 12.3 mph19.8 kmh 29.27 in991.2 mb 0.04 in1.0 mm 0.00 in0.0 mm 0.12 in3.0 mm
04:10 AM 44.6°F7.0°C 44.0°F6.7°C 98% 7.5 mph WNW12.1 kmh WNW 12.3 mph19.8 kmh 29.27 in991.2 mb 0.04 in1.0 mm 0.00 in0.0 mm 0.12 in3.0 mm
04:05 AM 44.7°F7.1°C 43.9°F6.6°C 97% 7.0 mph NW11.3 kmh NW 12.3 mph19.8 kmh 29.27 in991.2 mb 0.04 in1.0 mm 0.12 in3.0 mm 0.12 in3.0 mm
04:00 AM 44.8°F7.1°C 44.0°F6.7°C 97% 4.5 mph NW7.2 kmh NW 12.3 mph19.8 kmh 29.27 in991.2 mb 0.03 in0.8 mm 0.00 in0.0 mm 0.11 in2.8 mm
03:55 AM 44.8°F7.1°C 44.0°F6.7°C 97% 6.3 mph NW10.1 kmh NW 15.0 mph24.1 kmh 29.27 in991.2 mb 0.03 in0.8 mm 0.00 in0.0 mm 0.11 in2.8 mm
03:50 AM 44.8°F7.1°C 44.0°F6.7°C 97% 6.8 mph NW10.9 kmh NW 15.0 mph24.1 kmh 29.26 in990.9 mb 0.03 in0.8 mm 0.00 in0.0 mm 0.11 in2.8 mm
03:45 AM 44.8°F7.1°C 44.0°F6.7°C 97% 3.8 mph NW6.1 kmh NW 12.3 mph19.8 kmh 29.26 in990.9 mb 0.03 in0.8 mm 0.24 in6.1 mm 0.11 in2.8 mm
03:40 AM 45.0°F7.2°C 44.2°F6.8°C 97% 6.0 mph W9.7 kmh W 15.0 mph24.1 kmh 29.26 in990.9 mb 0.01 in0.3 mm 0.00 in0.0 mm 0.09 in2.3 mm
03:35 AM 45.0°F7.2°C 44.2°F6.8°C 97% 4.2 mph WNW6.8 kmh WNW 9.8 mph15.8 kmh 29.26 in990.9 mb 0.01 in0.3 mm 0.00 in0.0 mm 0.09 in2.3 mm
03:30 AM 44.9°F7.2°C 44.1°F6.7°C 97% 3.1 mph N5.0 kmh N 9.8 mph15.8 kmh 29.25 in990.5 mb 0.01 in0.3 mm 0.00 in0.0 mm 0.09 in2.3 mm
03:25 AM 45.0°F7.2°C 44.2°F6.8°C 97% 5.6 mph NW9.0 kmh NW 15.0 mph24.1 kmh 29.25 in990.5 mb 0.01 in0.3 mm 0.00 in0.0 mm 0.09 in2.3 mm
03:20 AM 44.9°F7.2°C 44.1°F6.7°C 97% 5.2 mph NW8.4 kmh NW 9.8 mph15.8 kmh 29.25 in990.5 mb 0.01 in0.3 mm 0.12 in3.0 mm 0.09 in2.3 mm
03:15 AM 44.8°F7.1°C 44.0°F6.7°C 97% 5.3 mph NW8.5 kmh NW 12.3 mph19.8 kmh 29.25 in990.5 mb 0.00 in0.0 mm 0.00 in0.0 mm 0.08 in2.0 mm
03:10 AM 45.0°F7.2°C 44.2°F6.8°C 97% 3.3 mph W5.3 kmh W 7.4 mph11.9 kmh 29.24 in990.2 mb 0.00 in0.0 mm 0.00 in0.0 mm 0.08 in2.0 mm
03:05 AM 45.0°F7.2°C 44.2°F6.8°C 97% 2.7 mph NW4.3 kmh NW 7.4 mph11.9 kmh 29.24 in990.2 mb 0.00 in0.0 mm 0.00 in0.0 mm 0.08 in2.0 mm
03:00 AM 45.0°F7.2°C 44.2°F6.8°C 97% 7.0 mph NW11.3 kmh NW 12.3 mph19.8 kmh 29.24 in990.2 mb 0.00 in0.0 mm 0.00 in0.0 mm 0.08 in2.0 mm
02:55 AM 45.0°F7.2°C 44.2°F6.8°C 97% 9.4 mph NW15.1 kmh NW 17.4 mph28.0 kmh 29.24 in990.2 mb 0.00 in0.0 mm 0.00 in0.0 mm 0.08 in2.0 mm
02:50 AM 45.0°F7.2°C 44.2°F6.8°C 97% 4.3 mph NW6.9 kmh NW 12.3 mph19.8 kmh 29.24 in990.2 mb 0.00 in0.0 mm 0.00 in0.0 mm 0.08 in2.0 mm
02:45 AM 45.0°F7.2°C 44.2°F6.8°C 97% 5.7 mph NW9.2 kmh NW 12.3 mph19.8 kmh 29.23 in989.8 mb 0.00 in0.0 mm 0.00 in0.0 mm 0.08 in2.0 mm
02:40 AM 45.0°F7.2°C 44.2°F6.8°C 97% 3.3 mph WNW5.3 kmh WNW 7.4 mph11.9 kmh 29.23 in989.8 mb 0.01 in0.3 mm 0.00 in0.0 mm 0.08 in2.0 mm
02:35 AM 45.0°F7.2°C 44.2°F6.8°C 97% 6.0 mph NW9.7 kmh NW 15.0 mph24.1 kmh 29.23 in989.8 mb 0.01 in0.3 mm 0.00 in0.0 mm 0.08 in2.0 mm
02:30 AM 45.0°F7.2°C 44.2°F6.8°C 97% 5.9 mph NW9.5 kmh NW 9.8 mph15.8 kmh 29.23 in989.8 mb 0.01 in0.3 mm 0.00 in0.0 mm 0.08 in2.0 mm
02:25 AM 45.0°F7.2°C 44.2°F6.8°C 97% 8.6 mph WNW13.8 kmh WNW 12.3 mph19.8 kmh 29.23 in989.8 mb 0.02 in0.5 mm 0.00 in0.0 mm 0.08 in2.0 mm
02:20 AM 45.0°F7.2°C 44.2°F6.8°C 97% 6.1 mph WNW9.8 kmh WNW 19.9 mph32.0 kmh 29.23 in989.8 mb 0.02 in0.5 mm 0.00 in0.0 mm 0.08 in2.0 mm
02:15 AM 45.0°F7.2°C 44.2°F6.8°C 97% 7.0 mph WNW11.3 kmh WNW 15.0 mph24.1 kmh 29.23 in989.8 mb 0.02 in0.5 mm 0.00 in0.0 mm 0.08 in2.0 mm
02:10 AM 45.0°F7.2°C 44.2°F6.8°C 97% 7.0 mph NW11.3 kmh NW 15.0 mph24.1 kmh 29.23 in989.8 mb 0.02 in0.5 mm 0.00 in0.0 mm 0.08 in2.0 mm
02:05 AM 45.0°F7.2°C 44.2°F6.8°C 97% 7.9 mph NW12.7 kmh NW 17.4 mph28.0 kmh 29.22 in989.5 mb 0.03 in0.8 mm 0.00 in0.0 mm 0.08 in2.0 mm
02:00 AM 45.0°F7.2°C 44.2°F6.8°C 97% 4.0 mph NW6.4 kmh NW 9.8 mph15.8 kmh 29.22 in989.5 mb 0.03 in0.8 mm 0.00 in0.0 mm 0.08 in2.0 mm
01:55 AM 45.0°F7.2°C 44.2°F6.8°C 97% 6.4 mph WNW10.3 kmh WNW 12.3 mph19.8 kmh 29.22 in989.5 mb 0.04 in1.0 mm 0.00 in0.0 mm 0.08 in2.0 mm
01:50 AM 45.0°F7.2°C 44.2°F6.8°C 97% 6.4 mph NW10.3 kmh NW 12.3 mph19.8 kmh 29.21 in989.2 mb 0.04 in1.0 mm 0.00 in0.0 mm 0.08 in2.0 mm
01:45 AM 45.0°F7.2°C 44.2°F6.8°C 97% 5.9 mph NW9.5 kmh NW 12.3 mph19.8 kmh 29.22 in989.5 mb 0.04 in1.0 mm 0.00 in0.0 mm 0.08 in2.0 mm
01:40 AM 45.0°F7.2°C 44.2°F6.8°C 97% 4.7 mph WNW7.6 kmh WNW 17.4 mph28.0 kmh 29.22 in989.5 mb 0.05 in1.3 mm 0.00 in0.0 mm 0.07 in1.8 mm
01:35 AM 45.0°F7.2°C 44.2°F6.8°C 97% 5.9 mph WNW9.5 kmh WNW 19.9 mph32.0 kmh 29.21 in989.2 mb 0.05 in1.3 mm 0.00 in0.0 mm 0.07 in1.8 mm
01:30 AM 45.0°F7.2°C 44.2°F6.8°C 97% 8.8 mph NW14.2 kmh NW 22.4 mph36.0 kmh 29.21 in989.2 mb 0.05 in1.3 mm 0.00 in0.0 mm 0.07 in1.8 mm
01:25 AM 45.0°F7.2°C 44.2°F6.8°C 97% 9.1 mph WNW14.6 kmh WNW 15.0 mph24.1 kmh 29.21 in989.2 mb 0.05 in1.3 mm 0.00 in0.0 mm 0.06 in1.5 mm
01:20 AM 45.0°F7.2°C 44.2°F6.8°C 97% 5.7 mph NNW9.2 kmh NNW 15.0 mph24.1 kmh 29.21 in989.2 mb 0.05 in1.3 mm 0.00 in0.0 mm 0.06 in1.5 mm
01:15 AM 45.0°F7.2°C 44.2°F6.8°C 97% 4.5 mph WNW7.2 kmh WNW 7.4 mph11.9 kmh 29.21 in989.2 mb 0.05 in1.3 mm 0.00 in0.0 mm 0.06 in1.5 mm
01:10 AM 45.0°F7.2°C 44.2°F6.8°C 97% 5.3 mph WNW8.5 kmh WNW 15.0 mph24.1 kmh 29.21 in989.2 mb 0.06 in1.5 mm 0.12 in3.0 mm 0.06 in1.5 mm
01:05 AM 45.0°F7.2°C 44.2°F6.8°C 97% 8.0 mph W12.9 kmh W 17.4 mph28.0 kmh 29.21 in989.2 mb 0.05 in1.3 mm 0.00 in0.0 mm 0.05 in1.3 mm
01:00 AM 45.1°F7.3°C 44.3°F6.8°C 97% 7.3 mph WNW11.7 kmh WNW 17.4 mph28.0 kmh 29.21 in989.2 mb 0.05 in1.3 mm 0.01 in0.3 mm 0.05 in1.3 mm
12:55 AM 45.1°F7.3°C 44.3°F6.8°C 97% 7.0 mph WNW11.3 kmh WNW 12.3 mph19.8 kmh 29.21 in989.2 mb 0.04 in1.0 mm 0.00 in0.0 mm 0.04 in1.0 mm
12:50 AM 45.1°F7.3°C 44.3°F6.8°C 97% 7.5 mph NW12.1 kmh NW 15.0 mph24.1 kmh 29.21 in989.2 mb 0.05 in1.3 mm 0.00 in0.0 mm 0.04 in1.0 mm
12:45 AM 45.1°F7.3°C 44.3°F6.8°C 97% 6.7 mph W10.8 kmh W 9.8 mph15.8 kmh 29.20 in988.8 mb 0.06 in1.5 mm 0.24 in6.1 mm 0.04 in1.0 mm
12:40 AM 45.1°F7.3°C 44.3°F6.8°C 97% 8.9 mph W14.3 kmh W 24.8 mph39.9 kmh 29.20 in988.8 mb 0.04 in1.0 mm 0.00 in0.0 mm 0.02 in0.5 mm
12:35 AM 45.1°F7.3°C 44.3°F6.8°C 97% 7.9 mph WNW12.7 kmh WNW 17.4 mph28.0 kmh 29.20 in988.8 mb 0.04 in1.0 mm 0.00 in0.0 mm 0.02 in0.5 mm
12:30 AM 45.1°F7.3°C 44.3°F6.8°C 97% 7.2 mph NW11.6 kmh NW 12.3 mph19.8 kmh 29.20 in988.8 mb 0.05 in1.3 mm 0.12 in3.0 mm 0.02 in0.5 mm
12:25 AM 45.1°F7.3°C 44.3°F6.8°C 97% 7.2 mph NW11.6 kmh NW 19.9 mph32.0 kmh 29.20 in988.8 mb 0.04 in1.0 mm 0.00 in0.0 mm 0.01 in0.3 mm
12:20 AM 45.1°F7.3°C 44.3°F6.8°C 97% 5.5 mph W8.9 kmh W 15.0 mph24.1 kmh 29.20 in988.8 mb 0.04 in1.0 mm 0.00 in0.0 mm 0.01 in0.3 mm
12:15 AM 45.1°F7.3°C 44.3°F6.8°C 97% 6.1 mph WNW9.8 kmh WNW 12.3 mph19.8 kmh 29.20 in988.8 mb 0.04 in1.0 mm 0.00 in0.0 mm 0.01 in0.3 mm
12:10 AM 45.3°F7.4°C 44.5°F6.9°C 97% 4.5 mph NW7.2 kmh NW 12.3 mph19.8 kmh 29.20 in988.8 mb 0.04 in1.0 mm 0.00 in0.0 mm 0.04 in1.0 mm
12:05 AM 45.3°F7.4°C 44.5°F6.9°C 97% 4.7 mph WNW7.6 kmh WNW 9.8 mph15.8 kmh 29.20 in988.8 mb 0.04 in1.0 mm 0.00 in0.0 mm 0.04 in1.0 mm
12:00 AM 45.3°F7.4°C 44.5°F6.9°C 97% 7.6 mph WNW12.2 kmh WNW 17.4 mph28.0 kmh 29.20 in988.8 mb 0.04 in1.0 mm 0.00 in0.0 mm 0.04 in1.0 mm